createdAt,value
2017-07-19T00:01:01.747Z,19.50
2017-07-19T00:03:30.083Z,19.40
2017-07-19T00:05:58.430Z,19.40
2017-07-19T00:08:26.747Z,19.40
2017-07-19T00:10:55.090Z,19.40
2017-07-19T00:13:23.423Z,19.40
2017-07-19T00:15:51.767Z,19.40
2017-07-19T00:18:20.090Z,19.30
2017-07-19T00:20:48.431Z,19.30
2017-07-19T00:23:16.765Z,19.20
2017-07-19T00:25:45.075Z,19.20
2017-07-19T00:28:13.420Z,19.20
2017-07-19T00:30:41.746Z,19.20
2017-07-19T00:33:10.082Z,19.10
2017-07-19T00:35:38.408Z,19.10
2017-07-19T00:38:06.749Z,19.10
2017-07-19T00:40:35.070Z,19.00
2017-07-19T00:43:03.408Z,19.00
2017-07-19T00:45:31.718Z,19.00
2017-07-19T00:48:00.063Z,19.00
2017-07-19T00:50:28.379Z,18.90
2017-07-19T00:52:56.778Z,18.90
2017-07-19T00:55:25.104Z,18.90
2017-07-19T00:57:53.459Z,18.90
2017-07-19T01:00:21.783Z,18.80
2017-07-19T01:02:50.108Z,18.80
2017-07-19T01:05:18.447Z,18.80
2017-07-19T01:07:46.773Z,18.70
2017-07-19T01:10:15.113Z,18.70
2017-07-19T01:12:43.436Z,18.70
2017-07-19T01:15:11.778Z,18.60
2017-07-19T01:17:40.093Z,18.60
2017-07-19T01:20:08.522Z,18.60
2017-07-19T01:22:36.843Z,18.60
2017-07-19T01:25:05.187Z,18.60
2017-07-19T01:27:33.505Z,18.60
2017-07-19T01:30:01.822Z,18.50
2017-07-19T01:32:30.159Z,18.50
2017-07-19T01:34:58.475Z,18.50
2017-07-19T01:37:26.807Z,18.50
2017-07-19T01:39:55.112Z,18.50
2017-07-19T01:42:23.439Z,18.50
2017-07-19T01:44:51.785Z,18.50
2017-07-19T01:47:20.114Z,18.40
2017-07-19T01:49:48.425Z,18.40
2017-07-19T01:52:16.775Z,18.40
2017-07-19T01:54:45.093Z,18.30
2017-07-19T01:57:13.408Z,18.30
2017-07-19T01:59:41.751Z,18.30
2017-07-19T02:02:10.059Z,18.30
2017-07-19T02:04:38.403Z,18.30
2017-07-19T02:07:06.723Z,18.30
2017-07-19T02:09:35.061Z,18.20
2017-07-19T02:12:03.375Z,18.20
2017-07-19T02:14:31.715Z,18.10
2017-07-19T02:17:00.030Z,18.10
2017-07-19T02:19:28.387Z,18.10
2017-07-19T02:21:56.708Z,18.00
2017-07-19T02:24:25.028Z,18.00
2017-07-19T02:26:53.371Z,18.00
2017-07-19T02:29:21.686Z,18.00
2017-07-19T02:31:50.035Z,18.00
2017-07-19T02:34:18.348Z,18.00
2017-07-19T02:36:46.700Z,18.00
2017-07-19T02:39:15.018Z,17.90
2017-07-19T02:41:43.383Z,17.90
2017-07-19T02:44:11.703Z,17.90
2017-07-19T02:46:40.049Z,17.80
2017-07-19T02:49:08.372Z,17.80
2017-07-19T02:51:36.690Z,17.80
2017-07-19T02:54:05.026Z,17.80
2017-07-19T02:56:33.352Z,17.80
2017-07-19T02:59:01.690Z,17.70
2017-07-19T03:01:30.095Z,17.70
2017-07-19T03:03:58.427Z,17.70
2017-07-19T03:06:26.745Z,17.70
2017-07-19T03:08:55.096Z,17.70
2017-07-19T03:11:23.417Z,17.70
2017-07-19T03:13:51.739Z,17.70
2017-07-19T03:16:20.087Z,17.70
2017-07-19T03:18:48.412Z,17.70
2017-07-19T03:21:16.748Z,17.70
2017-07-19T03:23:45.067Z,17.60
2017-07-19T03:26:13.391Z,17.60
2017-07-19T03:28:41.718Z,17.60
2017-07-19T03:31:10.064Z,17.60
2017-07-19T03:33:38.384Z,17.50
2017-07-19T03:36:06.756Z,17.50
2017-07-19T03:38:35.076Z,17.40
2017-07-19T03:41:03.416Z,17.40
2017-07-19T03:43:31.756Z,17.50
2017-07-19T03:46:00.093Z,17.50
2017-07-19T03:48:28.431Z,17.50
2017-07-19T03:50:56.759Z,17.50
2017-07-19T03:53:25.096Z,17.50
2017-07-19T03:55:53.415Z,17.40
2017-07-19T03:58:21.760Z,17.50
2017-07-19T04:00:50.078Z,17.50
2017-07-19T04:03:18.429Z,17.50
2017-07-19T04:05:46.745Z,17.50
2017-07-19T04:08:15.065Z,17.60
2017-07-19T04:10:43.401Z,17.60
2017-07-19T04:13:11.725Z,17.60
2017-07-19T04:15:40.062Z,17.70
2017-07-19T04:18:08.380Z,17.80
2017-07-19T04:20:36.721Z,17.90
2017-07-19T04:23:05.046Z,18.00
2017-07-19T04:25:32.623Z,17.90
2017-07-19T04:28:00.935Z,18.00
2017-07-19T04:30:29.280Z,18.00
2017-07-19T04:32:57.596Z,18.00
2017-07-19T04:35:25.947Z,18.10
2017-07-19T04:37:54.264Z,18.10
2017-07-19T04:40:22.636Z,18.20
2017-07-19T04:42:50.984Z,18.20
2017-07-19T04:45:19.352Z,18.30
2017-07-19T04:47:47.682Z,18.40
2017-07-19T04:50:16.000Z,18.50
2017-07-19T04:52:44.339Z,18.80
2017-07-19T04:55:12.666Z,19.30
2017-07-19T04:57:41.003Z,20.00
2017-07-19T05:00:09.322Z,20.50
2017-07-19T05:02:37.657Z,20.90
2017-07-19T05:05:05.972Z,21.10
2017-07-19T05:07:34.312Z,21.30
2017-07-19T05:10:02.630Z,21.50
2017-07-19T05:12:30.948Z,21.80
2017-07-19T05:14:59.273Z,21.90
2017-07-19T05:17:27.587Z,21.90
2017-07-19T05:19:55.919Z,22.00
2017-07-19T05:22:24.229Z,21.90
2017-07-19T05:24:52.589Z,21.60
2017-07-19T05:27:20.914Z,21.40
2017-07-19T05:29:49.252Z,21.20
2017-07-19T05:32:17.580Z,21.10
2017-07-19T05:34:45.916Z,21.10
2017-07-19T05:37:14.228Z,21.00
2017-07-19T05:39:42.585Z,21.00
2017-07-19T05:42:10.908Z,21.00
2017-07-19T05:44:39.219Z,21.10
2017-07-19T05:47:07.565Z,21.20
2017-07-19T05:49:35.889Z,21.30
2017-07-19T05:52:04.242Z,21.40
2017-07-19T05:54:32.557Z,21.40
2017-07-19T05:57:00.897Z,21.60
2017-07-19T05:59:28.456Z,21.60
2017-07-19T06:01:56.816Z,21.80
2017-07-19T06:04:25.125Z,21.90
2017-07-19T06:06:53.491Z,22.00
2017-07-19T06:09:21.815Z,22.10
2017-07-19T06:11:50.436Z,22.30
2017-07-19T06:14:18.757Z,22.50
2017-07-19T06:16:47.080Z,22.60
2017-07-19T06:19:15.420Z,22.70
2017-07-19T06:21:43.750Z,22.80
2017-07-19T06:24:12.096Z,23.00
2017-07-19T06:26:40.406Z,23.20
2017-07-19T06:29:08.757Z,23.30
2017-07-19T06:31:37.084Z,23.50
2017-07-19T06:34:05.414Z,23.70
2017-07-19T06:36:33.732Z,23.90
2017-07-19T06:39:02.073Z,24.20
2017-07-19T06:41:30.387Z,24.40
2017-07-19T06:43:58.702Z,24.70
2017-07-19T06:46:27.039Z,24.80
2017-07-19T06:48:55.370Z,25.00
2017-07-19T06:51:23.703Z,25.20
2017-07-19T06:53:52.010Z,25.40
2017-07-19T06:56:20.348Z,25.50
2017-07-19T06:58:48.660Z,25.70
2017-07-19T07:01:16.989Z,26.00
2017-07-19T07:03:45.311Z,26.20
2017-07-19T07:06:13.725Z,26.50
2017-07-19T07:08:42.044Z,26.70
2017-07-19T07:11:10.397Z,26.80
2017-07-19T07:13:38.707Z,26.90
2017-07-19T07:16:07.032Z,27.00
2017-07-19T07:18:35.376Z,27.10
2017-07-19T07:21:03.687Z,27.30
2017-07-19T07:23:32.029Z,27.50
2017-07-19T07:26:00.345Z,27.60
2017-07-19T07:28:28.710Z,27.50
2017-07-19T07:30:57.035Z,27.60
2017-07-19T07:33:25.376Z,27.50
2017-07-19T07:35:53.687Z,27.60
2017-07-19T07:38:22.017Z,27.60
2017-07-19T07:40:50.327Z,27.80
2017-07-19T07:43:18.652Z,27.90
2017-07-19T07:45:46.963Z,28.10
2017-07-19T07:48:15.303Z,28.20
2017-07-19T07:50:43.620Z,28.20
2017-07-19T07:53:11.941Z,28.30
2017-07-19T07:55:41.300Z,28.30
2017-07-19T07:58:09.612Z,28.40
2017-07-19T08:00:37.188Z,28.40
2017-07-19T08:03:05.504Z,28.70
2017-07-19T08:05:33.840Z,28.80
2017-07-19T08:08:02.164Z,28.90
2017-07-19T08:10:30.500Z,29.00
2017-07-19T08:12:58.811Z,29.10
2017-07-19T08:15:27.118Z,29.20
2017-07-19T08:17:55.444Z,29.20
2017-07-19T08:20:23.763Z,29.30
2017-07-19T08:22:52.123Z,29.40
2017-07-19T08:25:20.456Z,29.60
2017-07-19T08:27:48.793Z,29.80
2017-07-19T08:30:17.100Z,29.90
2017-07-19T08:32:45.427Z,29.90
2017-07-19T08:35:13.732Z,29.90
2017-07-19T08:37:42.093Z,29.90
2017-07-19T08:40:10.411Z,30.00
2017-07-19T08:42:38.760Z,30.00
2017-07-19T08:45:07.100Z,30.00
2017-07-19T08:47:35.421Z,30.10
2017-07-19T08:50:03.766Z,30.20
2017-07-19T08:52:32.078Z,30.40
2017-07-19T08:55:00.419Z,30.70
2017-07-19T08:57:28.735Z,30.70
2017-07-19T08:59:57.063Z,30.80
2017-07-19T09:02:25.385Z,30.90
2017-07-19T09:04:53.728Z,30.90
2017-07-19T09:07:22.047Z,30.90
2017-07-19T09:09:50.387Z,30.90
2017-07-19T09:12:18.719Z,31.00
2017-07-19T09:14:47.077Z,31.10
2017-07-19T09:17:15.406Z,31.20
2017-07-19T09:19:43.724Z,31.20
2017-07-19T09:22:12.102Z,31.30
2017-07-19T09:24:40.416Z,31.30
2017-07-19T09:27:08.756Z,31.30
2017-07-19T09:29:37.100Z,31.50
2017-07-19T09:32:05.452Z,31.80
2017-07-19T09:34:33.767Z,31.90
2017-07-19T09:37:02.103Z,32.00
2017-07-19T09:39:30.418Z,31.90
2017-07-19T09:41:58.764Z,31.90
2017-07-19T09:44:27.078Z,32.00
2017-07-19T09:46:55.388Z,32.20
2017-07-19T09:49:23.736Z,32.60
2017-07-19T09:51:52.048Z,32.70
2017-07-19T09:54:20.390Z,32.70
2017-07-19T09:56:48.700Z,32.40
2017-07-19T09:59:17.043Z,32.50
2017-07-19T10:01:44.607Z,32.40
2017-07-19T10:04:12.971Z,32.90
2017-07-19T10:06:41.283Z,33.30
2017-07-19T10:09:09.639Z,33.40
2017-07-19T10:11:37.952Z,33.40
2017-07-19T10:14:06.298Z,33.60
2017-07-19T10:16:34.613Z,33.60
2017-07-19T10:19:02.928Z,33.40
2017-07-19T10:21:31.287Z,33.40
2017-07-19T10:23:59.610Z,33.30
2017-07-19T10:26:27.976Z,33.10
2017-07-19T10:28:56.311Z,33.00
2017-07-19T10:31:24.654Z,32.90
2017-07-19T10:33:52.984Z,32.90
2017-07-19T10:36:21.327Z,32.90
2017-07-19T10:38:49.687Z,33.10
2017-07-19T10:41:18.007Z,33.20
2017-07-19T10:43:46.311Z,33.40
2017-07-19T10:46:14.647Z,33.40
2017-07-19T10:48:42.960Z,33.60
2017-07-19T10:51:11.327Z,34.00
2017-07-19T10:53:39.643Z,34.30
2017-07-19T10:56:08.276Z,34.50
2017-07-19T10:58:36.641Z,34.50
2017-07-19T11:01:04.961Z,34.60
2017-07-19T11:03:33.300Z,34.90
2017-07-19T11:06:01.608Z,35.10
2017-07-19T11:08:29.944Z,35.20
2017-07-19T11:10:58.255Z,35.40
2017-07-19T11:13:26.602Z,35.50
2017-07-19T11:15:54.911Z,35.50
2017-07-19T11:18:23.263Z,35.50
2017-07-19T11:20:51.585Z,35.70
2017-07-19T11:23:19.909Z,35.70
2017-07-19T11:25:48.250Z,35.80
2017-07-19T11:28:16.569Z,35.80
2017-07-19T11:30:44.925Z,35.80
2017-07-19T11:33:13.239Z,35.80
2017-07-19T11:35:41.573Z,36.00
2017-07-19T11:38:09.910Z,36.30
2017-07-19T11:40:38.257Z,36.40
2017-07-19T11:43:06.577Z,36.10
2017-07-19T11:45:34.918Z,36.00
2017-07-19T11:48:03.240Z,35.90
2017-07-19T11:50:31.564Z,35.90
2017-07-19T11:52:59.892Z,35.80
2017-07-19T11:55:28.205Z,35.80
2017-07-19T11:57:56.547Z,35.90
2017-07-19T12:00:24.855Z,36.00
2017-07-19T12:02:53.213Z,36.00
2017-07-19T12:05:21.696Z,35.90
2017-07-19T12:07:50.069Z,35.70
2017-07-19T12:10:18.391Z,35.40
2017-07-19T12:12:46.704Z,35.40
2017-07-19T12:15:15.048Z,35.30
2017-07-19T12:17:43.359Z,35.20
2017-07-19T12:20:11.695Z,35.20
2017-07-19T12:22:41.005Z,35.10
2017-07-19T12:25:09.445Z,34.80
2017-07-19T12:27:37.840Z,34.60
2017-07-19T12:30:06.180Z,34.40
2017-07-19T12:32:34.626Z,34.40
2017-07-19T12:35:03.015Z,34.20
2017-07-19T12:37:31.349Z,34.20
2017-07-19T12:39:59.666Z,34.10
2017-07-19T12:42:28.026Z,34.00
2017-07-19T12:44:56.363Z,34.00
2017-07-19T12:47:24.726Z,33.90
2017-07-19T12:49:53.036Z,33.90
2017-07-19T12:52:21.381Z,33.90
2017-07-19T12:54:48.938Z,33.80
2017-07-19T12:57:17.243Z,34.10
2017-07-19T12:59:45.601Z,34.10
2017-07-19T13:02:13.932Z,33.90
2017-07-19T13:04:42.308Z,34.00
2017-07-19T13:07:10.632Z,34.10
2017-07-19T13:09:38.967Z,34.00
2017-07-19T13:12:07.381Z,33.80
2017-07-19T13:14:35.764Z,33.40
2017-07-19T13:17:04.076Z,33.00
2017-07-19T13:19:32.398Z,32.50
2017-07-19T13:22:00.772Z,32.30
2017-07-19T13:24:29.098Z,32.20
2017-07-19T13:26:57.427Z,32.10
2017-07-19T13:29:25.747Z,31.80
2017-07-19T13:31:54.082Z,31.70
2017-07-19T13:34:22.410Z,31.70
2017-07-19T13:36:50.744Z,31.70
2017-07-19T13:39:19.069Z,31.60
2017-07-19T13:41:47.416Z,31.50
2017-07-19T13:44:15.740Z,31.30
2017-07-19T13:46:44.062Z,31.10
2017-07-19T13:49:12.447Z,31.00
2017-07-19T13:51:40.759Z,30.70
2017-07-19T13:54:09.112Z,30.50
2017-07-19T13:56:37.441Z,30.10
2017-07-19T13:59:05.779Z,30.10
2017-07-19T14:01:33.350Z,30.10
2017-07-19T14:04:01.679Z,30.80
2017-07-19T14:06:29.992Z,31.00
2017-07-19T14:08:58.355Z,31.20
2017-07-19T14:11:26.676Z,31.40
2017-07-19T14:13:55.010Z,31.60
2017-07-19T14:16:23.324Z,31.80
2017-07-19T14:18:51.637Z,31.70
2017-07-19T14:21:20.004Z,31.50
2017-07-19T14:23:48.316Z,31.20
2017-07-19T14:26:16.660Z,31.10
2017-07-19T14:28:45.011Z,31.00
2017-07-19T14:31:12.582Z,30.90
2017-07-19T14:33:40.894Z,31.00
2017-07-19T14:36:09.233Z,31.10
2017-07-19T14:38:37.545Z,31.20
2017-07-19T14:41:05.885Z,31.30
2017-07-19T14:43:34.203Z,31.40
2017-07-19T14:46:02.641Z,31.40
2017-07-19T14:48:30.959Z,31.50
2017-07-19T14:50:59.293Z,31.80
2017-07-19T14:53:27.609Z,32.40
2017-07-19T14:55:55.921Z,32.90
2017-07-19T14:58:24.269Z,33.10
2017-07-19T15:00:52.612Z,33.00
2017-07-19T15:03:20.943Z,32.80
2017-07-19T15:05:49.248Z,32.50
2017-07-19T15:08:17.575Z,32.80
2017-07-19T15:10:45.888Z,33.10
2017-07-19T15:13:15.164Z,33.20
2017-07-19T15:15:43.485Z,32.80
2017-07-19T15:18:11.839Z,32.40
2017-07-19T15:20:39.402Z,32.40
2017-07-19T15:23:07.724Z,32.20
2017-07-19T15:25:36.068Z,32.20
2017-07-19T15:28:04.386Z,32.40
2017-07-19T15:30:32.735Z,32.70
2017-07-19T15:33:01.052Z,33.20
2017-07-19T15:35:29.431Z,33.60
2017-07-19T15:37:57.748Z,33.60
2017-07-19T15:40:26.197Z,33.40
2017-07-19T15:42:54.516Z,33.20
2017-07-19T15:45:22.837Z,33.00
2017-07-19T15:47:51.175Z,32.80
2017-07-19T15:50:19.488Z,32.60
2017-07-19T15:52:47.825Z,32.50
2017-07-19T15:55:16.156Z,32.30
2017-07-19T15:57:44.493Z,32.20
2017-07-19T16:00:12.836Z,32.30
2017-07-19T16:02:41.192Z,32.40
2017-07-19T16:05:09.509Z,32.40
2017-07-19T16:07:37.872Z,32.50
2017-07-19T16:10:06.212Z,32.50
2017-07-19T16:12:34.523Z,32.60
2017-07-19T16:15:02.860Z,32.60
2017-07-19T16:17:31.176Z,32.50
2017-07-19T16:19:59.534Z,32.30
2017-07-19T16:22:27.871Z,32.10
2017-07-19T16:24:56.216Z,31.90
2017-07-19T16:27:24.530Z,31.60
2017-07-19T16:29:52.861Z,31.50
2017-07-19T16:32:21.180Z,31.20
2017-07-19T16:34:49.509Z,30.60
2017-07-19T16:37:17.821Z,30.10
2017-07-19T16:39:46.157Z,29.80
2017-07-19T16:42:13.708Z,29.80
2017-07-19T16:44:42.023Z,29.30
2017-07-19T16:47:10.366Z,29.20
2017-07-19T16:49:38.676Z,29.00
2017-07-19T16:52:07.014Z,28.80
2017-07-19T16:54:35.331Z,28.60
2017-07-19T16:57:03.685Z,28.50
2017-07-19T16:59:32.012Z,28.40
2017-07-19T17:02:00.349Z,28.30
2017-07-19T17:04:28.671Z,28.20
2017-07-19T17:06:57.018Z,28.10
2017-07-19T17:09:25.334Z,27.90
2017-07-19T17:11:53.680Z,27.70
2017-07-19T17:14:21.991Z,27.60
2017-07-19T17:16:50.308Z,27.40
2017-07-19T17:19:18.657Z,27.30
2017-07-19T17:21:46.985Z,27.10
2017-07-19T17:24:15.324Z,27.00
2017-07-19T17:26:43.642Z,27.00
2017-07-19T17:29:11.974Z,27.10
2017-07-19T17:31:40.284Z,27.20
2017-07-19T17:34:08.628Z,27.30
2017-07-19T17:36:36.947Z,27.50
2017-07-19T17:39:05.293Z,27.50
2017-07-19T17:41:33.624Z,27.50
2017-07-19T17:44:01.990Z,27.50
2017-07-19T17:46:30.338Z,27.50
2017-07-19T17:48:58.660Z,27.40
2017-07-19T17:51:26.991Z,27.60
2017-07-19T17:53:55.312Z,27.90
2017-07-19T17:56:23.644Z,28.00
2017-07-19T17:58:51.957Z,28.20
2017-07-19T18:01:20.505Z,29.00
2017-07-19T18:03:48.822Z,29.40
2017-07-19T18:06:17.164Z,29.80
2017-07-19T18:08:45.488Z,30.10
2017-07-19T18:11:13.858Z,30.80
2017-07-19T18:13:42.188Z,31.10
2017-07-19T18:16:10.501Z,30.50
2017-07-19T18:18:39.040Z,29.90
2017-07-19T18:21:07.354Z,29.30
2017-07-19T18:23:35.866Z,28.80
2017-07-19T18:26:05.097Z,28.60
2017-07-19T18:28:34.077Z,28.30
2017-07-19T18:31:02.945Z,28.00
2017-07-19T18:33:32.496Z,27.70
2017-07-19T18:36:00.811Z,27.50
2017-07-19T18:38:29.853Z,27.30
2017-07-19T18:40:58.181Z,27.10
2017-07-19T18:43:26.529Z,27.00
2017-07-19T18:45:55.981Z,26.90
2017-07-19T18:48:24.327Z,26.80
2017-07-19T18:50:52.683Z,26.70
2017-07-19T18:53:21.244Z,26.70
2017-07-19T18:55:49.602Z,26.60
2017-07-19T18:58:17.918Z,26.40
2017-07-19T19:00:46.268Z,26.30
2017-07-19T19:03:14.599Z,26.20
2017-07-19T19:05:42.939Z,26.00
2017-07-19T19:08:11.269Z,25.90
2017-07-19T19:10:39.690Z,25.80
2017-07-19T19:13:07.237Z,25.80
2017-07-19T19:15:35.731Z,25.50
2017-07-19T19:18:04.103Z,25.40
2017-07-19T19:20:32.629Z,25.30
2017-07-19T19:23:01.179Z,25.10
2017-07-19T19:25:29.574Z,25.00
2017-07-19T19:27:58.092Z,24.90
2017-07-19T19:30:26.458Z,24.80
2017-07-19T19:32:54.972Z,24.70
2017-07-19T19:35:22.545Z,24.60
2017-07-19T19:37:50.872Z,24.40
2017-07-19T19:40:19.467Z,24.20
2017-07-19T19:42:48.348Z,24.10
2017-07-19T19:45:16.672Z,23.90
2017-07-19T19:47:45.000Z,23.80
2017-07-19T19:50:12.552Z,23.80
2017-07-19T19:52:40.895Z,23.60
2017-07-19T19:55:09.208Z,23.50
2017-07-19T19:57:37.539Z,23.40
2017-07-19T20:00:05.883Z,23.30
2017-07-19T20:02:34.226Z,23.20
2017-07-19T20:05:02.607Z,23.10
2017-07-19T20:07:30.930Z,23.00
2017-07-19T20:09:59.359Z,22.90
2017-07-19T20:12:27.687Z,22.80
2017-07-19T20:14:56.024Z,22.80
2017-07-19T20:17:24.388Z,22.70
2017-07-19T20:19:52.765Z,22.60
2017-07-19T20:22:21.173Z,22.50
2017-07-19T20:24:49.497Z,22.50
2017-07-19T20:27:18.347Z,22.40
2017-07-19T20:29:46.767Z,22.30
2017-07-19T20:32:15.164Z,22.30
2017-07-19T20:34:42.801Z,22.20
2017-07-19T20:37:11.930Z,22.10
2017-07-19T20:39:40.399Z,22.00
2017-07-19T20:42:08.276Z,22.00
2017-07-19T20:44:37.067Z,21.90
2017-07-19T20:47:05.474Z,21.80
2017-07-19T20:49:33.803Z,21.70
2017-07-19T20:52:02.146Z,21.70
2017-07-19T20:54:30.502Z,21.60
2017-07-19T20:56:58.836Z,21.60
2017-07-19T20:59:27.181Z,21.60
2017-07-19T21:01:54.760Z,21.60
2017-07-19T21:04:23.110Z,21.60
2017-07-19T21:06:51.488Z,21.50
2017-07-19T21:09:19.850Z,21.50
2017-07-19T21:11:48.171Z,21.50
2017-07-19T21:14:16.484Z,21.50
2017-07-19T21:16:44.816Z,21.40
2017-07-19T21:19:13.127Z,21.30
2017-07-19T21:21:41.464Z,21.30
2017-07-19T21:24:09.777Z,21.20
2017-07-19T21:26:38.148Z,21.20
2017-07-19T21:29:06.464Z,21.20
2017-07-19T21:31:34.801Z,21.20
2017-07-19T21:34:03.128Z,21.20
2017-07-19T21:36:31.475Z,21.20
2017-07-19T21:38:59.787Z,21.20
2017-07-19T21:41:28.108Z,21.30
2017-07-19T21:43:56.445Z,21.30
2017-07-19T21:46:24.752Z,21.30
2017-07-19T21:48:53.091Z,21.30
2017-07-19T21:51:21.465Z,21.30
2017-07-19T21:53:49.800Z,21.20
2017-07-19T21:56:18.129Z,21.20
2017-07-19T21:58:46.459Z,21.20
2017-07-19T22:01:14.018Z,21.20
2017-07-19T22:03:42.356Z,21.10
2017-07-19T22:06:10.670Z,21.10
2017-07-19T22:08:39.013Z,21.10
2017-07-19T22:11:07.323Z,21.10
2017-07-19T22:13:35.643Z,21.10
2017-07-19T22:16:03.977Z,21.10
2017-07-19T22:18:32.297Z,21.10
2017-07-19T22:21:00.643Z,21.10
2017-07-19T22:23:28.972Z,21.10
2017-07-19T22:25:57.312Z,21.10
2017-07-19T22:28:25.626Z,21.10
2017-07-19T22:30:53.981Z,21.10
2017-07-19T22:33:22.291Z,21.10
2017-07-19T22:35:50.633Z,21.10
2017-07-19T22:38:18.948Z,21.20
2017-07-19T22:40:47.317Z,21.20
2017-07-19T22:43:15.640Z,21.20
2017-07-19T22:45:43.188Z,21.20
2017-07-19T22:48:11.530Z,21.20
2017-07-19T22:50:39.845Z,21.20
2017-07-19T22:53:08.181Z,21.20
2017-07-19T22:55:36.498Z,21.20
2017-07-19T22:58:04.848Z,21.10
2017-07-19T23:00:32.399Z,21.10
2017-07-19T23:03:00.731Z,21.10
2017-07-19T23:05:29.050Z,21.10
2017-07-19T23:07:57.389Z,21.10
2017-07-19T23:10:25.705Z,21.00
2017-07-19T23:12:54.111Z,21.00
2017-07-19T23:15:22.435Z,21.00
2017-07-19T23:17:50.755Z,21.00
2017-07-19T23:20:19.102Z,21.00
2017-07-19T23:22:47.416Z,21.10
2017-07-19T23:25:15.753Z,21.10
2017-07-19T23:27:44.064Z,21.10
2017-07-19T23:30:12.394Z,21.00
2017-07-19T23:32:40.707Z,21.00
2017-07-19T23:35:08.278Z,21.00
2017-07-19T23:37:36.598Z,21.10
2017-07-19T23:40:04.937Z,21.10
2017-07-19T23:42:33.259Z,21.10
2017-07-19T23:45:01.595Z,21.00
2017-07-19T23:47:29.917Z,21.00
2017-07-19T23:49:58.255Z,21.00
2017-07-19T23:52:26.581Z,21.00
2017-07-19T23:54:54.937Z,21.00
2017-07-19T23:57:23.271Z,21.00
2017-07-19T23:59:51.583Z,21.00
